الصفحة الرئيسية
METAR-TAF:

METAR-TAF

مطار :

إمارة دبي, الإمارات العربية المتحدة

مطار دبي الدولي

دائرة عرض: 25-15-10N, خط طول: 055-21-52E, ارتفاع: 8 متر

مراقبة الطقس الحالي

تاريخ ووقت الإصدار 16 دقيقة قبل الساعة 16:00UTC
ريح 7 عقدة من الشمال الشرقي, الاتجاه يتراوح بين الشمال/الشمال الشرقي و الشرق
درجة الحرارة 33°درجة مئوية
الرطوبة 21%
ضغط 1009 hPa
الرؤية 10 كم أو أكثر
الغيوم لا تقل 1500 م ولا وجود لمزنة ركامية السحاب الأسود

METAR: OMDB 221600Z 05007KT 020V100 CAVOK 33/08 Q1009 NOSIG

زمن: 20:16 (16:16 UTC)

توقعات

تاريخ ووقت الإصدار 5ساعات و 20 دقيقة قبل الساعة 10:56UTC
التوقعات صالحة من22 الساعة 12 UTC إلى 23 الساعة 18 UTC
ريح 12 عقدة من الشمال
الرؤية: 8000 متر
أصبح
من 22 الساعة 15 UTC إلى 22 الساعة 17 UTC
ريح 5 عقدة من الشرق
أصبح
من 23 الساعة 02 UTC إلى 23 الساعة 04 UTC
ريح 12 عقدة من الجنوب
أصبح
من 23 الساعة 09 UTC إلى 23 الساعة 11 UTC
ريح 14 عقدة من الشمال
أصبح
من 23 الساعة 16 UTC إلى 23 الساعة 18 UTC
ريح 5 عقدة من الشرق

TAF: OMDB 221056Z 2212/2318 35012KT 8000 NSC BECMG 2215/2217 08005KT BECMG 2302/2304 17012KT BECMG 2309/2311 35014KT BECMG 2316/2318 09005KT

أرصاد الطقس والتوقعات من أكثر من 4000 مطار (تقارير الطقس للمطار METAR والتنبؤ بالطقس بالمطارTAF).

المحطات المتاحة هي النقط الصفراء والحمراء على الخريطة.

حرك المؤشر فوق النقطة لمعرفة اسم المحطة.

ثم انقر لمعرفة أرصاد وتوقعات الطقس.

لتغيير الخارطة: اضغط على الأزرار الخضراء مع رمز الصليب الأسود للتكبير. على الزر الأخضر مع شرطة للتصغير، أو على الأسهم الخضراء للخرائط المجاورة.


METAR-TAF: